sensor_id;sensor_type;location;lat;lon;timestamp;P1;durP1;ratioP1;P2;durP2;ratioP2
72517;SDS011;60540;51.178;6.738;2024-02-21T00:03:16;15.00;;;4.82;;
72517;SDS011;60540;51.178;6.738;2024-02-21T00:06:00;14.25;;;5.78;;
72517;SDS011;60540;51.178;6.738;2024-02-21T00:08:45;12.57;;;5.10;;
72517;SDS011;60540;51.178;6.738;2024-02-21T00:11:29;14.05;;;4.22;;
72517;SDS011;60540;51.178;6.738;2024-02-21T00:14:14;15.82;;;4.80;;
72517;SDS011;60540;51.178;6.738;2024-02-21T00:16:58;15.13;;;5.43;;
72517;SDS011;60540;51.178;6.738;2024-02-21T00:19:42;10.73;;;4.47;;
72517;SDS011;60540;51.178;6.738;2024-02-21T00:22:26;14.38;;;5.25;;
72517;SDS011;60540;51.178;6.738;2024-02-21T00:25:13;11.73;;;5.05;;
72517;SDS011;60540;51.178;6.738;2024-02-21T00:27:57;13.27;;;5.85;;
72517;SDS011;60540;51.178;6.738;2024-02-21T00:30:41;11.57;;;4.75;;
72517;SDS011;60540;51.178;6.738;2024-02-21T00:33:25;13.35;;;5.07;;
72517;SDS011;60540;51.178;6.738;2024-02-21T00:36:09;15.02;;;5.47;;
72517;SDS011;60540;51.178;6.738;2024-02-21T00:38:53;15.30;;;5.53;;
72517;SDS011;60540;51.178;6.738;2024-02-21T00:41:37;14.20;;;4.97;;
72517;SDS011;60540;51.178;6.738;2024-02-21T00:44:22;14.30;;;5.15;;
72517;SDS011;60540;51.178;6.738;2024-02-21T00:47:06;14.43;;;4.80;;
72517;SDS011;60540;51.178;6.738;2024-02-21T00:49:50;15.50;;;5.25;;
72517;SDS011;60540;51.178;6.738;2024-02-21T00:52:34;13.18;;;4.85;;
72517;SDS011;60540;51.178;6.738;2024-02-21T00:55:18;11.38;;;4.90;;
72517;SDS011;60540;51.178;6.738;2024-02-21T00:58:02;14.57;;;5.75;;
72517;SDS011;60540;51.178;6.738;2024-02-21T01:00:47;12.32;;;5.15;;
72517;SDS011;60540;51.178;6.738;2024-02-21T01:03:31;13.35;;;5.60;;
72517;SDS011;60540;51.178;6.738;2024-02-21T01:06:15;17.17;;;6.20;;
72517;SDS011;60540;51.178;6.738;2024-02-21T01:08:59;16.90;;;5.22;;
72517;SDS011;60540;51.178;6.738;2024-02-21T01:11:43;11.57;;;4.47;;
72517;SDS011;60540;51.178;6.738;2024-02-21T01:14:27;13.25;;;5.30;;
72517;SDS011;60540;51.178;6.738;2024-02-21T01:17:12;16.90;;;5.25;;
72517;SDS011;60540;51.178;6.738;2024-02-21T01:19:56;11.73;;;4.88;;
72517;SDS011;60540;51.178;6.738;2024-02-21T01:22:40;12.98;;;5.03;;
72517;SDS011;60540;51.178;6.738;2024-02-21T01:25:25;15.30;;;5.22;;
72517;SDS011;60540;51.178;6.738;2024-02-21T01:28:09;11.48;;;4.50;;
72517;SDS011;60540;51.178;6.738;2024-02-21T01:30:53;8.82;;;4.60;;
72517;SDS011;60540;51.178;6.738;2024-02-21T01:33:37;12.70;;;5.18;;
72517;SDS011;60540;51.178;6.738;2024-02-21T01:36:22;13.75;;;5.43;;
72517;SDS011;60540;51.178;6.738;2024-02-21T01:39:06;15.55;;;5.00;;
72517;SDS011;60540;51.178;6.738;2024-02-21T01:41:51;13.85;;;4.90;;
72517;SDS011;60540;51.178;6.738;2024-02-21T01:44:35;14.52;;;4.45;;
72517;SDS011;60540;51.178;6.738;2024-02-21T01:47:22;11.57;;;4.38;;
72517;SDS011;60540;51.178;6.738;2024-02-21T01:50:06;10.20;;;4.57;;
72517;SDS011;60540;51.178;6.738;2024-02-21T01:52:51;14.00;;;5.07;;
72517;SDS011;60540;51.178;6.738;2024-02-21T01:55:35;15.48;;;4.50;;
72517;SDS011;60540;51.178;6.738;2024-02-21T01:58:20;14.70;;;5.07;;
72517;SDS011;60540;51.178;6.738;2024-02-21T02:01:04;11.63;;;4.40;;
72517;SDS011;60540;51.178;6.738;2024-02-21T02:03:48;12.20;;;4.78;;
72517;SDS011;60540;51.178;6.738;2024-02-21T02:06:32;12.23;;;4.20;;
72517;SDS011;60540;51.178;6.738;2024-02-21T02:09:17;12.70;;;4.85;;
72517;SDS011;60540;51.178;6.738;2024-02-21T02:12:01;12.88;;;4.22;;
72517;SDS011;60540;51.178;6.738;2024-02-21T02:14:46;10.98;;;5.10;;
72517;SDS011;60540;51.178;6.738;2024-02-21T02:17:30;13.80;;;4.65;;
72517;SDS011;60540;51.178;6.738;2024-02-21T02:20:14;12.35;;;4.10;;
72517;SDS011;60540;51.178;6.738;2024-02-21T02:22:59;14.23;;;4.32;;
72517;SDS011;60540;51.178;6.738;2024-02-21T02:25:43;14.77;;;4.50;;
72517;SDS011;60540;51.178;6.738;2024-02-21T02:28:28;14.13;;;4.88;;
72517;SDS011;60540;51.178;6.738;2024-02-21T02:31:12;14.43;;;4.85;;
72517;SDS011;60540;51.178;6.738;2024-02-21T02:33:56;11.85;;;4.60;;
72517;SDS011;60540;51.178;6.738;2024-02-21T02:36:40;11.85;;;5.07;;
72517;SDS011;60540;51.178;6.738;2024-02-21T02:39:24;12.90;;;5.03;;
72517;SDS011;60540;51.178;6.738;2024-02-21T02:42:09;14.20;;;5.20;;
72517;SDS011;60540;51.178;6.738;2024-02-21T02:44:53;13.50;;;4.57;;
72517;SDS011;60540;51.178;6.738;2024-02-21T02:47:39;9.75;;;4.65;;
72517;SDS011;60540;51.178;6.738;2024-02-21T02:50:24;11.00;;;4.15;;
72517;SDS011;60540;51.178;6.738;2024-02-21T02:53:08;14.15;;;4.53;;
72517;SDS011;60540;51.178;6.738;2024-02-21T02:55:53;11.18;;;4.30;;
72517;SDS011;60540;51.178;6.738;2024-02-21T02:58:37;9.48;;;4.03;;
72517;SDS011;60540;51.178;6.738;2024-02-21T03:01:21;13.10;;;4.65;;
72517;SDS011;60540;51.178;6.738;2024-02-21T03:04:05;12.55;;;3.95;;
72517;SDS011;60540;51.178;6.738;2024-02-21T03:06:49;11.38;;;4.43;;
72517;SDS011;60540;51.178;6.738;2024-02-21T03:09:34;12.82;;;4.68;;
72517;SDS011;60540;51.178;6.738;2024-02-21T03:12:19;13.18;;;4.70;;
72517;SDS011;60540;51.178;6.738;2024-02-21T03:15:08;11.20;;;4.68;;
72517;SDS011;60540;51.178;6.738;2024-02-21T03:17:53;13.50;;;5.63;;
72517;SDS011;60540;51.178;6.738;2024-02-21T03:20:37;11.43;;;4.25;;
72517;SDS011;60540;51.178;6.738;2024-02-21T03:23:21;14.40;;;4.82;;
72517;SDS011;60540;51.178;6.738;2024-02-21T03:26:06;11.93;;;4.40;;
72517;SDS011;60540;51.178;6.738;2024-02-21T03:28:50;12.82;;;4.50;;
72517;SDS011;60540;51.178;6.738;2024-02-21T03:31:35;13.15;;;4.78;;
72517;SDS011;60540;51.178;6.738;2024-02-21T03:34:19;9.50;;;3.72;;
72517;SDS011;60540;51.178;6.738;2024-02-21T03:37:03;13.40;;;4.50;;
72517;SDS011;60540;51.178;6.738;2024-02-21T03:39:47;9.02;;;3.72;;
72517;SDS011;60540;51.178;6.738;2024-02-21T03:42:32;10.30;;;4.20;;
72517;SDS011;60540;51.178;6.738;2024-02-21T03:45:16;10.43;;;3.90;;
72517;SDS011;60540;51.178;6.738;2024-02-21T03:48:01;9.77;;;4.05;;
72517;SDS011;60540;51.178;6.738;2024-02-21T03:50:45;11.73;;;4.78;;
72517;SDS011;60540;51.178;6.738;2024-02-21T03:53:29;8.50;;;3.88;;
72517;SDS011;60540;51.178;6.738;2024-02-21T03:56:13;7.80;;;3.42;;
72517;SDS011;60540;51.178;6.738;2024-02-21T03:58:58;9.32;;;3.95;;
72517;SDS011;60540;51.178;6.738;2024-02-21T04:01:42;13.48;;;3.97;;
72517;SDS011;60540;51.178;6.738;2024-02-21T04:04:27;10.40;;;4.32;;
72517;SDS011;60540;51.178;6.738;2024-02-21T04:07:11;11.65;;;3.80;;
72517;SDS011;60540;51.178;6.738;2024-02-21T04:09:55;6.45;;;3.17;;
72517;SDS011;60540;51.178;6.738;2024-02-21T04:12:39;7.28;;;3.50;;
72517;SDS011;60540;51.178;6.738;2024-02-21T04:15:24;8.60;;;4.00;;
72517;SDS011;60540;51.178;6.738;2024-02-21T04:18:08;11.38;;;3.58;;
72517;SDS011;60540;51.178;6.738;2024-02-21T04:20:52;10.48;;;3.63;;
72517;SDS011;60540;51.178;6.738;2024-02-21T04:23:36;9.02;;;3.72;;
72517;SDS011;60540;51.178;6.738;2024-02-21T04:26:20;7.93;;;3.00;;
72517;SDS011;60540;51.178;6.738;2024-02-21T04:29:04;9.93;;;3.65;;
72517;SDS011;60540;51.178;6.738;2024-02-21T04:31:49;12.15;;;3.80;;
72517;SDS011;60540;51.178;6.738;2024-02-21T04:34:33;15.48;;;4.53;;
72517;SDS011;60540;51.178;6.738;2024-02-21T04:37:17;7.82;;;3.50;;
72517;SDS011;60540;51.178;6.738;2024-02-21T04:40:01;10.48;;;4.25;;
72517;SDS011;60540;51.178;6.738;2024-02-21T04:42:46;10.55;;;3.50;;
72517;SDS011;60540;51.178;6.738;2024-02-21T04:45:30;11.70;;;3.75;;
72517;SDS011;60540;51.178;6.738;2024-02-21T04:48:14;9.80;;;3.75;;
72517;SDS011;60540;51.178;6.738;2024-02-21T04:50:59;6.65;;;3.65;;
72517;SDS011;60540;51.178;6.738;2024-02-21T04:53:43;12.32;;;3.30;;
72517;SDS011;60540;51.178;6.738;2024-02-21T04:56:27;9.32;;;4.47;;
72517;SDS011;60540;51.178;6.738;2024-02-21T04:59:12;7.80;;;3.40;;
72517;SDS011;60540;51.178;6.738;2024-02-21T05:01:56;10.43;;;4.03;;
72517;SDS011;60540;51.178;6.738;2024-02-21T05:04:42;8.10;;;3.72;;
72517;SDS011;60540;51.178;6.738;2024-02-21T05:07:26;9.30;;;3.35;;
72517;SDS011;60540;51.178;6.738;2024-02-21T05:10:11;10.18;;;3.58;;
72517;SDS011;60540;51.178;6.738;2024-02-21T05:12:55;8.15;;;4.05;;
72517;SDS011;60540;51.178;6.738;2024-02-21T05:15:39;8.48;;;3.63;;
72517;SDS011;60540;51.178;6.738;2024-02-21T05:18:24;10.43;;;3.75;;
72517;SDS011;60540;51.178;6.738;2024-02-21T05:21:08;9.60;;;3.60;;
72517;SDS011;60540;51.178;6.738;2024-02-21T05:23:52;8.52;;;3.17;;
72517;SDS011;60540;51.178;6.738;2024-02-21T05:26:37;8.23;;;3.28;;
72517;SDS011;60540;51.178;6.738;2024-02-21T05:29:21;10.20;;;3.50;;
72517;SDS011;60540;51.178;6.738;2024-02-21T05:32:05;11.35;;;3.58;;
72517;SDS011;60540;51.178;6.738;2024-02-21T05:34:50;7.05;;;3.38;;
72517;SDS011;60540;51.178;6.738;2024-02-21T05:37:36;11.13;;;3.50;;
72517;SDS011;60540;51.178;6.738;2024-02-21T05:40:20;9.57;;;3.28;;
72517;SDS011;60540;51.178;6.738;2024-02-21T05:43:04;7.57;;;3.55;;
72517;SDS011;60540;51.178;6.738;2024-02-21T05:45:48;8.70;;;3.97;;
72517;SDS011;60540;51.178;6.738;2024-02-21T05:48:32;10.13;;;4.00;;
72517;SDS011;60540;51.178;6.738;2024-02-21T05:51:17;7.55;;;3.30;;
72517;SDS011;60540;51.178;6.738;2024-02-21T05:54:01;10.93;;;3.63;;
72517;SDS011;60540;51.178;6.738;2024-02-21T05:56:45;7.82;;;2.70;;
72517;SDS011;60540;51.178;6.738;2024-02-21T05:59:29;9.15;;;3.40;;
72517;SDS011;60540;51.178;6.738;2024-02-21T06:02:14;8.45;;;3.38;;
72517;SDS011;60540;51.178;6.738;2024-02-21T06:04:59;7.75;;;3.63;;
72517;SDS011;60540;51.178;6.738;2024-02-21T06:07:43;8.38;;;3.47;;
72517;SDS011;60540;51.178;6.738;2024-02-21T06:10:27;10.02;;;3.60;;
72517;SDS011;60540;51.178;6.738;2024-02-21T06:13:11;7.55;;;2.95;;
72517;SDS011;60540;51.178;6.738;2024-02-21T06:15:56;9.02;;;3.38;;
72517;SDS011;60540;51.178;6.738;2024-02-21T06:18:40;8.73;;;3.35;;
72517;SDS011;60540;51.178;6.738;2024-02-21T06:21:25;8.43;;;3.92;;
72517;SDS011;60540;51.178;6.738;2024-02-21T06:24:12;10.32;;;4.00;;
72517;SDS011;60540;51.178;6.738;2024-02-21T06:26:57;7.72;;;3.25;;
72517;SDS011;60540;51.178;6.738;2024-02-21T06:29:41;7.13;;;2.70;;
72517;SDS011;60540;51.178;6.738;2024-02-21T06:32:25;7.20;;;2.72;;
72517;SDS011;60540;51.178;6.738;2024-02-21T06:35:09;8.45;;;2.75;;
72517;SDS011;60540;51.178;6.738;2024-02-21T06:37:53;8.57;;;2.85;;
72517;SDS011;60540;51.178;6.738;2024-02-21T06:40:38;9.93;;;2.90;;
72517;SDS011;60540;51.178;6.738;2024-02-21T06:43:24;7.45;;;2.95;;
72517;SDS011;60540;51.178;6.738;2024-02-21T06:46:08;8.80;;;3.25;;
72517;SDS011;60540;51.178;6.738;2024-02-21T06:48:52;8.23;;;3.20;;
72517;SDS011;60540;51.178;6.738;2024-02-21T06:51:37;7.03;;;2.83;;
72517;SDS011;60540;51.178;6.738;2024-02-21T06:54:21;7.97;;;3.25;;
72517;SDS011;60540;51.178;6.738;2024-02-21T06:57:05;8.13;;;3.05;;
72517;SDS011;60540;51.178;6.738;2024-02-21T06:59:50;9.23;;;3.53;;
72517;SDS011;60540;51.178;6.738;2024-02-21T07:02:34;6.35;;;3.10;;
72517;SDS011;60540;51.178;6.738;2024-02-21T07:05:19;6.95;;;3.03;;
72517;SDS011;60540;51.178;6.738;2024-02-21T07:08:03;11.57;;;3.63;;
72517;SDS011;60540;51.178;6.738;2024-02-21T07:10:48;7.43;;;2.75;;
72517;SDS011;60540;51.178;6.738;2024-02-21T07:13:32;6.22;;;2.75;;
72517;SDS011;60540;51.178;6.738;2024-02-21T07:16:16;9.32;;;3.95;;
72517;SDS011;60540;51.178;6.738;2024-02-21T07:19:00;6.60;;;2.63;;
72517;SDS011;60540;51.178;6.738;2024-02-21T07:21:45;8.98;;;2.60;;
72517;SDS011;60540;51.178;6.738;2024-02-21T07:24:29;7.22;;;2.58;;
72517;SDS011;60540;51.178;6.738;2024-02-21T07:27:17;5.85;;;2.47;;
72517;SDS011;60540;51.178;6.738;2024-02-21T07:30:01;6.80;;;2.70;;
72517;SDS011;60540;51.178;6.738;2024-02-21T07:32:48;5.03;;;2.50;;
72517;SDS011;60540;51.178;6.738;2024-02-21T07:35:33;6.72;;;2.83;;
72517;SDS011;60540;51.178;6.738;2024-02-21T07:38:17;8.55;;;2.95;;
72517;SDS011;60540;51.178;6.738;2024-02-21T07:41:02;8.25;;;2.90;;
72517;SDS011;60540;51.178;6.738;2024-02-21T07:43:47;8.05;;;2.72;;
72517;SDS011;60540;51.178;6.738;2024-02-21T07:46:32;9.27;;;2.53;;
72517;SDS011;60540;51.178;6.738;2024-02-21T07:49:16;6.82;;;2.42;;
72517;SDS011;60540;51.178;6.738;2024-02-21T07:52:01;7.05;;;2.35;;
72517;SDS011;60540;51.178;6.738;2024-02-21T07:54:45;9.93;;;2.78;;
72517;SDS011;60540;51.178;6.738;2024-02-21T07:57:29;6.65;;;2.72;;
72517;SDS011;60540;51.178;6.738;2024-02-21T08:00:14;7.40;;;3.08;;
72517;SDS011;60540;51.178;6.738;2024-02-21T08:03:03;12.20;;;3.15;;
72517;SDS011;60540;51.178;6.738;2024-02-21T08:05:48;14.75;;;2.70;;
72517;SDS011;60540;51.178;6.738;2024-02-21T08:08:32;5.80;;;2.25;;
72517;SDS011;60540;51.178;6.738;2024-02-21T08:11:17;6.50;;;2.20;;
72517;SDS011;60540;51.178;6.738;2024-02-21T08:14:01;7.57;;;2.97;;
72517;SDS011;60540;51.178;6.738;2024-02-21T08:16:46;11.07;;;2.70;;
72517;SDS011;60540;51.178;6.738;2024-02-21T08:19:30;9.02;;;2.58;;
72517;SDS011;60540;51.178;6.738;2024-02-21T08:22:15;8.82;;;2.92;;
72517;SDS011;60540;51.178;6.738;2024-02-21T08:24:59;7.75;;;3.03;;
72517;SDS011;60540;51.178;6.738;2024-02-21T08:27:43;5.82;;;2.70;;
72517;SDS011;60540;51.178;6.738;2024-02-21T08:30:29;10.82;;;3.60;;
72517;SDS011;60540;51.178;6.738;2024-02-21T08:33:14;6.72;;;2.50;;
72517;SDS011;60540;51.178;6.738;2024-02-21T08:35:59;7.78;;;2.90;;
72517;SDS011;60540;51.178;6.738;2024-02-21T08:38:43;7.40;;;2.45;;
72517;SDS011;60540;51.178;6.738;2024-02-21T08:41:27;9.60;;;3.03;;
72517;SDS011;60540;51.178;6.738;2024-02-21T08:44:12;7.95;;;3.00;;
72517;SDS011;60540;51.178;6.738;2024-02-21T08:46:56;10.82;;;2.92;;
72517;SDS011;60540;51.178;6.738;2024-02-21T08:49:41;11.88;;;3.30;;
72517;SDS011;60540;51.178;6.738;2024-02-21T08:52:25;10.20;;;3.30;;
72517;SDS011;60540;51.178;6.738;2024-02-21T08:55:09;12.25;;;2.97;;
72517;SDS011;60540;51.178;6.738;2024-02-21T08:57:53;8.20;;;3.00;;
72517;SDS011;60540;51.178;6.738;2024-02-21T09:00:37;6.88;;;3.10;;
72517;SDS011;60540;51.178;6.738;2024-02-21T09:03:21;11.43;;;3.00;;
72517;SDS011;60540;51.178;6.738;2024-02-21T09:06:06;8.10;;;3.33;;
72517;SDS011;60540;51.178;6.738;2024-02-21T09:08:51;10.60;;;3.50;;
72517;SDS011;60540;51.178;6.738;2024-02-21T09:11:35;6.35;;;2.90;;
72517;SDS011;60540;51.178;6.738;2024-02-21T09:14:19;7.53;;;3.33;;
72517;SDS011;60540;51.178;6.738;2024-02-21T09:17:04;13.05;;;3.55;;
72517;SDS011;60540;51.178;6.738;2024-02-21T09:19:48;8.10;;;3.17;;
72517;SDS011;60540;51.178;6.738;2024-02-21T09:22:33;7.78;;;3.28;;
72517;SDS011;60540;51.178;6.738;2024-02-21T09:25:18;10.25;;;3.58;;
72517;SDS011;60540;51.178;6.738;2024-02-21T09:28:02;7.97;;;3.40;;
72517;SDS011;60540;51.178;6.738;2024-02-21T09:30:47;8.93;;;3.20;;
72517;SDS011;60540;51.178;6.738;2024-02-21T09:33:32;8.98;;;2.92;;
72517;SDS011;60540;51.178;6.738;2024-02-21T09:36:16;6.85;;;3.00;;
72517;SDS011;60540;51.178;6.738;2024-02-21T09:39:01;5.65;;;3.08;;
72517;SDS011;60540;51.178;6.738;2024-02-21T09:41:50;8.73;;;3.25;;
72517;SDS011;60540;51.178;6.738;2024-02-21T09:44:39;8.02;;;2.90;;
72517;SDS011;60540;51.178;6.738;2024-02-21T09:47:24;7.47;;;2.60;;
72517;SDS011;60540;51.178;6.738;2024-02-21T09:50:15;7.80;;;3.13;;
72517;SDS011;60540;51.178;6.738;2024-02-21T09:52:59;7.47;;;2.60;;
72517;SDS011;60540;51.178;6.738;2024-02-21T09:55:46;8.13;;;3.00;;
72517;SDS011;60540;51.178;6.738;2024-02-21T09:58:31;6.60;;;2.95;;
72517;SDS011;60540;51.178;6.738;2024-02-21T10:01:16;6.60;;;2.60;;
72517;SDS011;60540;51.178;6.738;2024-02-21T10:04:00;5.50;;;2.33;;
72517;SDS011;60540;51.178;6.738;2024-02-21T10:06:47;6.30;;;2.30;;
72517;SDS011;60540;51.178;6.738;2024-02-21T10:09:31;5.38;;;2.85;;
72517;SDS011;60540;51.178;6.738;2024-02-21T10:12:17;4.68;;;2.40;;
72517;SDS011;60540;51.178;6.738;2024-02-21T10:15:03;6.00;;;2.28;;
72517;SDS011;60540;51.178;6.738;2024-02-21T10:17:48;12.60;;;2.60;;
72517;SDS011;60540;51.178;6.738;2024-02-21T10:20:32;4.90;;;2.33;;
72517;SDS011;60540;51.178;6.738;2024-02-21T10:23:17;5.28;;;2.15;;
72517;SDS011;60540;51.178;6.738;2024-02-21T10:26:05;5.60;;;1.83;;
72517;SDS011;60540;51.178;6.738;2024-02-21T10:28:50;5.97;;;2.08;;
72517;SDS011;60540;51.178;6.738;2024-02-21T10:31:36;7.20;;;2.30;;
72517;SDS011;60540;51.178;6.738;2024-02-21T10:34:20;7.72;;;2.40;;
72517;SDS011;60540;51.178;6.738;2024-02-21T10:37:05;6.30;;;2.22;;
72517;SDS011;60540;51.178;6.738;2024-02-21T10:39:50;5.05;;;2.10;;
72517;SDS011;60540;51.178;6.738;2024-02-21T10:42:35;7.55;;;2.30;;
72517;SDS011;60540;51.178;6.738;2024-02-21T10:45:22;4.28;;;2.05;;
72517;SDS011;60540;51.178;6.738;2024-02-21T10:48:16;5.30;;;1.83;;
72517;SDS011;60540;51.178;6.738;2024-02-21T10:51:19;5.78;;;2.28;;
72517;SDS011;60540;51.178;6.738;2024-02-21T10:54:20;4.43;;;2.30;;
72517;SDS011;60540;51.178;6.738;2024-02-21T10:57:08;5.55;;;1.98;;
72517;SDS011;60540;51.178;6.738;2024-02-21T10:59:53;6.10;;;1.90;;
72517;SDS011;60540;51.178;6.738;2024-02-21T11:02:39;7.70;;;2.78;;
72517;SDS011;60540;51.178;6.738;2024-02-21T11:05:24;7.60;;;2.63;;
72517;SDS011;60540;51.178;6.738;2024-02-21T11:08:08;6.88;;;2.25;;
72517;SDS011;60540;51.178;6.738;2024-02-21T11:10:56;5.28;;;2.08;;
72517;SDS011;60540;51.178;6.738;2024-02-21T11:13:41;6.22;;;2.13;;
72517;SDS011;60540;51.178;6.738;2024-02-21T11:16:26;7.30;;;2.40;;
72517;SDS011;60540;51.178;6.738;2024-02-21T11:19:21;5.78;;;1.92;;
72517;SDS011;60540;51.178;6.738;2024-02-21T11:22:18;6.88;;;2.40;;
72517;SDS011;60540;51.178;6.738;2024-02-21T11:25:07;6.00;;;2.17;;
72517;SDS011;60540;51.178;6.738;2024-02-21T11:28:03;6.15;;;2.00;;
72517;SDS011;60540;51.178;6.738;2024-02-21T11:30:48;5.03;;;2.47;;
72517;SDS011;60540;51.178;6.738;2024-02-21T11:33:35;6.32;;;2.30;;
72517;SDS011;60540;51.178;6.738;2024-02-21T11:36:26;5.88;;;2.28;;
72517;SDS011;60540;51.178;6.738;2024-02-21T11:42:02;7.13;;;2.78;;
72517;SDS011;60540;51.178;6.738;2024-02-21T11:44:47;6.20;;;2.15;;
72517;SDS011;60540;51.178;6.738;2024-02-21T11:47:32;5.43;;;1.95;;
72517;SDS011;60540;51.178;6.738;2024-02-21T11:50:16;7.22;;;2.20;;
72517;SDS011;60540;51.178;6.738;2024-02-21T11:53:00;6.03;;;1.77;;
72517;SDS011;60540;51.178;6.738;2024-02-21T11:55:45;4.18;;;1.77;;
72517;SDS011;60540;51.178;6.738;2024-02-21T11:58:30;4.43;;;1.98;;
72517;SDS011;60540;51.178;6.738;2024-02-21T12:01:15;5.28;;;1.92;;
72517;SDS011;60540;51.178;6.738;2024-02-21T12:03:59;8.32;;;2.00;;
72517;SDS011;60540;51.178;6.738;2024-02-21T12:06:44;6.15;;;2.10;;
72517;SDS011;60540;51.178;6.738;2024-02-21T12:09:29;4.53;;;1.63;;
72517;SDS011;60540;51.178;6.738;2024-02-21T12:12:13;6.28;;;1.95;;
72517;SDS011;60540;51.178;6.738;2024-02-21T12:14:58;7.18;;;2.70;;
72517;SDS011;60540;51.178;6.738;2024-02-21T12:17:42;5.90;;;1.70;;
72517;SDS011;60540;51.178;6.738;2024-02-21T12:20:26;7.40;;;1.98;;
72517;SDS011;60540;51.178;6.738;2024-02-21T12:23:10;5.22;;;1.80;;
72517;SDS011;60540;51.178;6.738;2024-02-21T12:25:55;5.07;;;1.70;;
72517;SDS011;60540;51.178;6.738;2024-02-21T12:28:39;5.28;;;1.90;;
72517;SDS011;60540;51.178;6.738;2024-02-21T12:31:23;5.60;;;2.05;;
72517;SDS011;60540;51.178;6.738;2024-02-21T12:34:07;5.00;;;1.70;;
72517;SDS011;60540;51.178;6.738;2024-02-21T12:36:53;5.30;;;1.95;;
72517;SDS011;60540;51.178;6.738;2024-02-21T12:39:37;6.78;;;2.03;;
72517;SDS011;60540;51.178;6.738;2024-02-21T12:42:22;4.68;;;1.77;;
72517;SDS011;60540;51.178;6.738;2024-02-21T12:45:07;6.15;;;1.85;;
72517;SDS011;60540;51.178;6.738;2024-02-21T12:47:52;4.65;;;1.63;;
72517;SDS011;60540;51.178;6.738;2024-02-21T12:50:36;4.60;;;1.90;;
72517;SDS011;60540;51.178;6.738;2024-02-21T12:53:20;6.95;;;1.60;;
72517;SDS011;60540;51.178;6.738;2024-02-21T12:56:07;9.55;;;1.80;;
72517;SDS011;60540;51.178;6.738;2024-02-21T12:58:52;3.80;;;1.80;;
72517;SDS011;60540;51.178;6.738;2024-02-21T13:01:36;6.10;;;2.35;;
72517;SDS011;60540;51.178;6.738;2024-02-21T13:04:21;6.78;;;2.20;;
72517;SDS011;60540;51.178;6.738;2024-02-21T13:07:06;4.78;;;1.58;;
72517;SDS011;60540;51.178;6.738;2024-02-21T13:09:50;7.55;;;1.73;;
72517;SDS011;60540;51.178;6.738;2024-02-21T13:12:35;3.20;;;1.55;;
72517;SDS011;60540;51.178;6.738;2024-02-21T13:15:19;8.30;;;2.10;;
72517;SDS011;60540;51.178;6.738;2024-02-21T13:18:03;6.05;;;2.00;;
72517;SDS011;60540;51.178;6.738;2024-02-21T13:20:48;4.28;;;2.25;;
72517;SDS011;60540;51.178;6.738;2024-02-21T13:23:32;6.55;;;2.30;;
72517;SDS011;60540;51.178;6.738;2024-02-21T13:26:17;6.15;;;2.03;;
72517;SDS011;60540;51.178;6.738;2024-02-21T13:29:01;6.97;;;2.20;;
72517;SDS011;60540;51.178;6.738;2024-02-21T13:34:30;6.32;;;1.75;;
72517;SDS011;60540;51.178;6.738;2024-02-21T13:37:15;4.13;;;1.98;;
72517;SDS011;60540;51.178;6.738;2024-02-21T13:39:59;5.15;;;2.22;;
72517;SDS011;60540;51.178;6.738;2024-02-21T13:42:44;5.32;;;2.10;;
72517;SDS011;60540;51.178;6.738;2024-02-21T13:45:28;5.78;;;1.92;;
72517;SDS011;60540;51.178;6.738;2024-02-21T13:48:12;3.83;;;1.73;;
72517;SDS011;60540;51.178;6.738;2024-02-21T13:50:58;7.72;;;2.17;;
72517;SDS011;60540;51.178;6.738;2024-02-21T13:53:43;3.67;;;2.00;;
72517;SDS011;60540;51.178;6.738;2024-02-21T13:56:27;5.18;;;2.17;;
72517;SDS011;60540;51.178;6.738;2024-02-21T13:59:12;5.93;;;2.20;;
72517;SDS011;60540;51.178;6.738;2024-02-21T14:01:57;4.82;;;2.15;;
72517;SDS011;60540;51.178;6.738;2024-02-21T14:04:42;6.78;;;2.28;;
72517;SDS011;60540;51.178;6.738;2024-02-21T14:07:27;7.72;;;2.40;;
72517;SDS011;60540;51.178;6.738;2024-02-21T14:10:11;5.60;;;1.95;;
72517;SDS011;60540;51.178;6.738;2024-02-21T14:12:55;6.63;;;2.00;;
72517;SDS011;60540;51.178;6.738;2024-02-21T14:15:43;8.18;;;2.20;;
72517;SDS011;60540;51.178;6.738;2024-02-21T14:18:29;6.30;;;1.70;;
72517;SDS011;60540;51.178;6.738;2024-02-21T14:21:14;5.50;;;1.83;;
72517;SDS011;60540;51.178;6.738;2024-02-21T14:23:58;7.15;;;1.88;;
72517;SDS011;60540;51.178;6.738;2024-02-21T14:26:45;6.18;;;1.73;;
72517;SDS011;60540;51.178;6.738;2024-02-21T14:29:29;6.85;;;2.03;;
72517;SDS011;60540;51.178;6.738;2024-02-21T14:32:13;6.18;;;2.20;;
72517;SDS011;60540;51.178;6.738;2024-02-21T14:34:57;7.72;;;1.77;;
72517;SDS011;60540;51.178;6.738;2024-02-21T14:37:42;5.78;;;1.63;;
72517;SDS011;60540;51.178;6.738;2024-02-21T14:40:26;5.88;;;1.75;;
72517;SDS011;60540;51.178;6.738;2024-02-21T14:43:11;7.38;;;2.15;;
72517;SDS011;60540;51.178;6.738;2024-02-21T14:45:55;4.85;;;2.03;;
72517;SDS011;60540;51.178;6.738;2024-02-21T14:48:39;5.30;;;2.17;;
72517;SDS011;60540;51.178;6.738;2024-02-21T14:51:23;5.25;;;1.77;;
72517;SDS011;60540;51.178;6.738;2024-02-21T14:54:07;4.97;;;1.77;;
72517;SDS011;60540;51.178;6.738;2024-02-21T14:56:52;7.32;;;1.80;;
72517;SDS011;60540;51.178;6.738;2024-02-21T14:59:40;7.47;;;2.00;;
72517;SDS011;60540;51.178;6.738;2024-02-21T15:02:24;7.18;;;2.20;;
72517;SDS011;60540;51.178;6.738;2024-02-21T15:05:09;8.90;;;2.67;;
72517;SDS011;60540;51.178;6.738;2024-02-21T15:07:55;5.22;;;2.00;;
72517;SDS011;60540;51.178;6.738;2024-02-21T15:10:40;7.97;;;2.33;;
72517;SDS011;60540;51.178;6.738;2024-02-21T15:13:24;5.65;;;2.00;;
72517;SDS011;60540;51.178;6.738;2024-02-21T15:16:08;4.25;;;1.80;;
72517;SDS011;60540;51.178;6.738;2024-02-21T15:18:52;7.40;;;2.15;;
72517;SDS011;60540;51.178;6.738;2024-02-21T15:21:37;6.72;;;2.00;;
72517;SDS011;60540;51.178;6.738;2024-02-21T15:24:21;6.72;;;2.00;;
72517;SDS011;60540;51.178;6.738;2024-02-21T15:27:05;6.50;;;2.42;;
72517;SDS011;60540;51.178;6.738;2024-02-21T15:29:50;6.85;;;2.10;;
72517;SDS011;60540;51.178;6.738;2024-02-21T15:32:34;7.05;;;2.33;;
72517;SDS011;60540;51.178;6.738;2024-02-21T15:35:18;4.32;;;2.03;;
72517;SDS011;60540;51.178;6.738;2024-02-21T15:38:03;5.90;;;2.08;;
72517;SDS011;60540;51.178;6.738;2024-02-21T15:40:47;5.03;;;1.90;;
72517;SDS011;60540;51.178;6.738;2024-02-21T15:43:31;5.68;;;1.83;;
72517;SDS011;60540;51.178;6.738;2024-02-21T15:46:15;5.50;;;1.67;;
72517;SDS011;60540;51.178;6.738;2024-02-21T15:49:00;5.45;;;1.70;;
72517;SDS011;60540;51.178;6.738;2024-02-21T15:51:44;3.97;;;1.42;;
72517;SDS011;60540;51.178;6.738;2024-02-21T15:54:28;7.38;;;1.60;;
72517;SDS011;60540;51.178;6.738;2024-02-21T15:57:12;3.72;;;1.55;;
72517;SDS011;60540;51.178;6.738;2024-02-21T15:59:58;4.35;;;1.17;;
72517;SDS011;60540;51.178;6.738;2024-02-21T16:02:42;5.05;;;1.40;;
72517;SDS011;60540;51.178;6.738;2024-02-21T16:05:27;3.22;;;1.20;;
72517;SDS011;60540;51.178;6.738;2024-02-21T16:08:11;7.13;;;1.85;;
72517;SDS011;60540;51.178;6.738;2024-02-21T16:10:55;4.07;;;1.40;;
72517;SDS011;60540;51.178;6.738;2024-02-21T16:13:40;5.47;;;1.67;;
72517;SDS011;60540;51.178;6.738;2024-02-21T16:16:24;4.05;;;1.20;;
72517;SDS011;60540;51.178;6.738;2024-02-21T16:19:08;4.28;;;1.45;;
72517;SDS011;60540;51.178;6.738;2024-02-21T16:21:53;3.10;;;1.23;;
72517;SDS011;60540;51.178;6.738;2024-02-21T16:24:37;3.70;;;1.40;;
72517;SDS011;60540;51.178;6.738;2024-02-21T16:27:22;5.90;;;1.48;;
72517;SDS011;60540;51.178;6.738;2024-02-21T16:30:06;4.10;;;2.28;;
72517;SDS011;60540;51.178;6.738;2024-02-21T16:35:36;4.80;;;1.25;;
72517;SDS011;60540;51.178;6.738;2024-02-21T16:38:21;4.68;;;1.63;;